Time;durP1;ratioP1;P1;durP2;ratioP2;P2;SDS_P1;SDS_P2;PMS_P1;PMS_P2;Temp;Humidity;BMP_temperature;BMP_pressure;BME280_temperature;BME280_humidity;BME280_pressure;Samples;Min_cycle;Max_cycle;Signal;HPM_P1;HPM_P2
2023/06/19 00:02:38;;;;;;;1.65;1.55;;;;;;;-146.25;100.00;57403.91;5070142;28;20276;-85
2023/06/19 00:06:03;;;;;;;1.20;1.20;;;;;;;-146.25;100.00;57403.91;5070162;28;20206;-86
2023/06/19 00:09:30;;;;;;;1.98;1.88;;;;;;;-146.25;100.00;57403.91;5069812;28;20198;-86
2023/06/19 00:12:56;;;;;;;1.80;1.67;;;;;;;-146.25;100.00;57403.91;5070133;28;20234;-86
2023/06/19 00:16:24;;;;;;;1.90;1.80;;;;;;;-146.25;100.00;57403.91;5069481;28;20195;-87
2023/06/19 00:19:50;;;;;;;1.42;1.40;;;;;;;-146.25;100.00;57403.91;5069935;28;20248;-86
2023/06/19 00:23:16;;;;;;;3.58;2.00;;;;;;;-146.25;100.00;57403.91;5069584;28;20302;-86
2023/06/19 00:26:43;;;;;;;1.42;1.33;;;;;;;-146.25;100.00;57403.91;5069251;28;20224;-86
2023/06/19 00:30:09;;;;;;;1.45;1.35;;;;;;;-146.25;100.00;57403.91;5069343;28;20199;-86
2023/06/19 00:33:35;;;;;;;1.85;1.48;;;;;;;-146.25;100.00;57403.91;5069661;28;20227;-86
2023/06/19 00:37:01;;;;;;;1.80;1.70;;;;;;;-146.25;100.00;57403.91;5069590;28;20284;-86
2023/06/19 00:40:28;;;;;;;3.03;1.70;;;;;;;-146.25;100.00;57403.91;5071098;28;20262;-86
2023/06/19 00:43:55;;;;;;;1.95;1.48;;;;;;;-146.25;100.00;57403.91;5070669;28;20290;-87
2023/06/19 00:47:22;;;;;;;1.70;1.60;;;;;;;-146.25;100.00;57403.91;5068801;28;20679;-86
2023/06/19 00:50:47;;;;;;;1.85;1.75;;;;;;;-146.25;100.00;57403.91;5069598;28;20230;-86
2023/06/19 00:54:13;;;;;;;1.42;1.33;;;;;;;-146.25;100.00;57403.91;5069084;28;20268;-86
2023/06/19 00:57:39;;;;;;;1.58;1.48;;;;;;;-146.25;100.00;57403.91;5069697;28;20215;-86
2023/06/19 01:01:07;;;;;;;1.45;1.35;;;;;;;-146.25;100.00;57403.91;5068939;28;20213;-87
2023/06/19 01:04:33;;;;;;;1.90;1.80;;;;;;;-146.25;100.00;57403.91;5069996;28;20667;-86
2023/06/19 01:08:11;;;;;;;1.48;1.45;;;;;;;-146.25;100.00;57403.91;5075314;28;20240;-86
2023/06/19 01:11:40;;;;;;;1.48;1.38;;;;;;;-146.25;100.00;57403.91;5076690;28;20199;-86
2023/06/19 01:15:10;;;;;;;1.63;1.60;;;;;;;-146.25;100.00;57403.91;5069280;28;20237;-88
2023/06/19 01:18:37;;;;;;;1.45;1.35;;;;;;;-146.25;100.00;57403.91;5068995;28;20562;-87
2023/06/19 01:22:11;;;;;;;3.30;2.17;;;;;;;-146.25;100.00;57403.91;5068949;28;20209;-86
2023/06/19 01:25:36;;;;;;;2.30;2.10;;;;;;;-146.25;100.00;57403.91;5068521;28;20202;-87
2023/06/19 01:29:02;;;;;;;1.25;1.13;;;;;;;-146.25;100.00;57403.91;5069337;28;20578;-87
2023/06/19 01:32:33;;;;;;;2.00;1.55;;;;;;;-146.25;100.00;57403.91;5068914;28;20202;-86
2023/06/19 01:36:01;;;;;;;2.00;1.85;;;;;;;-146.25;100.00;57403.91;5069247;28;20233;-85
2023/06/19 01:39:29;;;;;;;1.98;1.88;;;;;;;-146.25;100.00;57403.91;5070486;28;20584;-86
2023/06/19 01:42:55;;;;;;;1.52;1.40;;;;;;;-146.25;100.00;57403.91;5072961;28;20217;-86
2023/06/19 01:46:21;;;;;;;3.75;1.70;;;;;;;-146.25;100.00;57403.91;5072708;28;20199;-86
2023/06/19 01:49:46;;;;;;;1.52;1.42;;;;;;;-146.25;100.00;57403.91;5072658;28;20201;-86
2023/06/19 01:53:12;;;;;;;1.65;1.55;;;;;;;-146.25;100.00;57403.91;5032198;28;20549;-85
2023/06/19 01:56:39;;;;;;;2.35;1.92;;;;;;;-146.25;100.00;57403.91;5033338;28;20229;-86
2023/06/19 02:00:07;;;;;;;2.17;1.92;;;;;;;-146.25;100.00;57403.91;5039523;28;20207;-86
2023/06/19 02:03:33;;;;;;;1.88;1.65;;;;;;;-146.25;100.00;57403.91;5044208;28;20589;-86
2023/06/19 02:06:58;;;;;;;1.70;1.60;;;;;;;-146.25;100.00;57403.91;5040939;28;20207;-86
2023/06/19 02:10:24;;;;;;;1.67;1.58;;;;;;;-146.25;100.00;57403.91;5041840;28;20197;-85
2023/06/19 02:13:51;;;;;;;2.10;2.00;;;;;;;-146.25;100.00;57403.91;5040798;28;20245;-86
2023/06/19 02:17:16;;;;;;;1.85;1.70;;;;;;;-146.25;100.00;57403.91;5040360;28;20207;-86
2023/06/19 02:20:42;;;;;;;2.70;1.85;;;;;;;-146.25;100.00;57403.91;5037152;28;20210;-86
2023/06/19 02:24:08;;;;;;;1.83;1.58;;;;;;;-146.25;100.00;57403.91;5031497;28;20203;-87
2023/06/19 02:27:33;;;;;;;2.80;2.60;;;;;;;-146.25;100.00;57403.91;5032806;28;20207;-87
2023/06/19 02:31:00;;;;;;;2.45;2.25;;;;;;;-146.25;100.00;57403.91;5031575;28;20203;-87
2023/06/19 02:34:26;;;;;;;1.92;1.60;;;;;;;-146.25;100.00;57403.91;5030699;28;20242;-85
2023/06/19 02:37:52;;;;;;;2.08;1.98;;;;;;;-146.25;100.00;57403.91;5030937;28;20221;-86
2023/06/19 02:41:18;;;;;;;2.42;1.77;;;;;;;-146.25;100.00;57403.91;5031838;28;20199;-86
2023/06/19 02:44:45;;;;;;;2.47;2.30;;;;;;;-146.25;100.00;57403.91;5030774;28;20210;-87
2023/06/19 02:48:12;;;;;;;2.13;1.98;;;;;;;-146.25;100.00;57403.91;5033554;28;20230;-86
2023/06/19 02:51:38;;;;;;;2.03;1.90;;;;;;;-146.25;100.00;57403.91;5050721;28;20238;-86
2023/06/19 02:55:03;;;;;;;2.00;1.90;;;;;;;-146.25;100.00;57403.91;5051060;28;20307;-85
2023/06/19 02:58:29;;;;;;;2.47;1.80;;;;;;;-146.25;100.00;57403.91;5049725;28;20452;-86
2023/06/19 03:01:55;;;;;;;1.95;1.85;;;;;;;-146.25;100.00;57403.91;5048080;28;20194;-86
2023/06/19 03:05:22;;;;;;;2.25;2.03;;;;;;;-146.25;100.00;57403.91;5042640;28;20205;-86
2023/06/19 03:08:48;;;;;;;2.17;1.98;;;;;;;-146.25;100.00;57403.91;5043146;28;20725;-86
2023/06/19 03:12:13;;;;;;;2.38;2.17;;;;;;;-146.25;100.00;57403.91;5045578;28;20582;-85
2023/06/19 03:15:39;;;;;;;1.98;1.85;;;;;;;-146.25;100.00;57403.91;5039879;28;20242;-86
2023/06/19 03:19:04;;;;;;;2.30;2.20;;;;;;;-146.25;100.00;57403.91;5042749;28;20238;-85
2023/06/19 03:22:31;;;;;;;1.98;1.88;;;;;;;-146.25;100.00;57403.91;5042560;28;20287;-85
2023/06/19 03:25:57;;;;;;;2.08;1.90;;;;;;;-146.25;100.00;57403.91;5030984;28;20222;-86
2023/06/19 03:29:23;;;;;;;2.15;2.05;;;;;;;-146.25;100.00;57403.91;5031580;28;20220;-86
2023/06/19 03:32:48;;;;;;;2.22;2.03;;;;;;;-146.25;100.00;57403.91;5030975;28;20207;-88
2023/06/19 03:36:14;;;;;;;5.03;2.40;;;;;;;-146.25;100.00;57403.91;5030022;28;20231;-86
2023/06/19 03:39:41;;;;;;;2.10;1.90;;;;;;;-146.25;100.00;57403.91;5030552;28;20204;-87
2023/06/19 03:43:07;;;;;;;1.70;1.60;;;;;;;-146.25;100.00;57403.91;5030275;28;20245;-87
2023/06/19 03:46:33;;;;;;;3.95;2.40;;;;;;;-146.25;100.00;57403.91;5031594;28;20258;-87
2023/06/19 03:49:59;;;;;;;3.00;2.40;;;;;;;-146.25;100.00;57403.91;5029662;28;20656;-87
2023/06/19 03:53:24;;;;;;;2.00;1.90;;;;;;;-146.25;100.00;57403.91;5029311;28;20642;-86
2023/06/19 03:56:51;;;;;;;1.88;1.75;;;;;;;-146.25;100.00;57403.91;5030328;28;20294;-86
2023/06/19 04:00:18;;;;;;;2.08;1.98;;;;;;;-146.25;100.00;57403.91;5029959;28;20307;-87
2023/06/19 04:03:43;;;;;;;3.20;1.80;;;;;;;-146.25;100.00;57403.91;5029580;28;20207;-86
2023/06/19 04:07:09;;;;;;;2.40;2.28;;;;;;;-146.25;100.00;57403.91;5029725;28;20591;-87
2023/06/19 04:10:34;;;;;;;2.25;2.15;;;;;;;-146.25;100.00;57403.91;5030069;28;20274;-86
2023/06/19 04:14:02;;;;;;;2.53;2.33;;;;;;;-146.25;100.00;57403.91;5030371;28;20219;-86
2023/06/19 04:17:28;;;;;;;2.13;1.92;;;;;;;-146.25;100.00;57403.91;5030917;28;20203;-90
2023/06/19 04:20:54;;;;;;;2.15;2.05;;;;;;;-146.25;100.00;57403.91;5030086;28;20207;-85
2023/06/19 04:24:20;;;;;;;1.88;1.77;;;;;;;-146.25;100.00;57403.91;5028546;28;20208;-87
2023/06/19 04:27:45;;;;;;;2.78;1.70;;;;;;;-146.25;100.00;57403.91;5029509;28;20239;-86
2023/06/19 04:31:17;;;;;;;1.80;1.80;;;;;;;-146.25;100.00;57403.91;5030275;28;20207;-86
2023/06/19 04:34:46;;;;;;;2.10;2.00;;;;;;;-146.25;100.00;57403.91;5029192;28;20660;-86
2023/06/19 04:38:14;;;;;;;2.85;2.65;;;;;;;-146.25;100.00;57403.91;5028804;28;20203;-85
2023/06/19 04:41:41;;;;;;;1.98;1.88;;;;;;;-146.25;100.00;57403.91;5029851;28;20492;-87
2023/06/19 04:45:07;;;;;;;2.63;2.10;;;;;;;-146.25;100.00;57403.91;5028755;28;20696;-86
2023/06/19 04:48:36;;;;;;;1.58;1.58;;;;;;;-146.25;100.00;57403.91;5029779;28;20200;-86
2023/06/19 04:52:03;;;;;;;2.25;2.15;;;;;;;-146.25;100.00;57403.91;5028696;28;20254;-86
2023/06/19 04:55:28;;;;;;;1.50;1.50;;;;;;;-146.25;100.00;57403.91;5029059;28;20297;-87
2023/06/19 04:58:56;;;;;;;1.75;1.75;;;;;;;-146.25;100.00;57403.91;5029254;28;20265;-86
2023/06/19 05:02:23;;;;;;;1.77;1.67;;;;;;;-146.25;100.00;57403.91;5029560;28;20804;-86
2023/06/19 05:05:51;;;;;;;2.08;1.98;;;;;;;-146.25;100.00;57403.91;5028341;28;20254;-86
2023/06/19 05:09:16;;;;;;;2.90;1.70;;;;;;;-146.25;100.00;57403.91;5029859;28;20207;-85
2023/06/19 05:12:42;;;;;;;2.88;1.77;;;;;;;-146.25;100.00;57403.91;5028622;28;20219;-86
2023/06/19 05:16:08;;;;;;;2.15;1.73;;;;;;;-146.25;100.00;57403.91;5028145;28;20234;-86
2023/06/19 05:19:36;;;;;;;1.33;1.27;;;;;;;-146.25;100.00;57403.91;5028567;28;20523;-87
2023/06/19 05:23:03;;;;;;;1.52;1.52;;;;;;;-146.25;100.00;57403.91;5036266;28;20687;-85
2023/06/19 05:26:28;;;;;;;1.42;1.42;;;;;;;-146.25;100.00;57403.91;5048672;28;20211;-86
2023/06/19 05:29:53;;;;;;;1.75;1.70;;;;;;;-146.25;100.00;57403.91;5048832;28;20301;-87
2023/06/19 05:33:19;;;;;;;1.70;1.60;;;;;;;-146.25;100.00;57403.91;5048999;28;20635;-87
2023/06/19 05:36:46;;;;;;;1.80;1.75;;;;;;;-146.25;100.00;57403.91;5048945;28;20238;-89
2023/06/19 05:40:14;;;;;;;1.85;1.80;;;;;;;-146.25;100.00;57403.91;5049093;28;20607;-88
2023/06/19 05:43:40;;;;;;;2.00;1.83;;;;;;;-146.25;100.00;57403.91;5049686;28;20256;-88
2023/06/19 05:47:05;;;;;;;1.80;1.70;;;;;;;-146.25;100.00;57403.91;5049183;28;20203;-87
2023/06/19 05:50:31;;;;;;;1.80;1.70;;;;;;;-146.25;100.00;57403.91;5048412;28;20346;-88
2023/06/19 05:54:03;;;;;;;2.03;1.92;;;;;;;-146.25;100.00;57403.91;5049151;28;20226;-89
2023/06/19 05:57:30;;;;;;;1.88;1.77;;;;;;;-146.25;100.00;57403.91;5048562;28;20234;-89
2023/06/19 06:00:57;;;;;;;1.58;1.58;;;;;;;-146.25;100.00;57403.91;5049670;28;20206;-88
2023/06/19 06:04:26;;;;;;;1.75;1.75;;;;;;;-146.25;100.00;57403.91;5042221;28;20299;-88
2023/06/19 06:07:51;;;;;;;1.95;1.85;;;;;;;-146.25;100.00;57403.91;5043900;28;20203;-88
2023/06/19 06:11:22;;;;;;;1.77;1.77;;;;;;;-146.25;100.00;57403.91;5049145;28;20214;-89
2023/06/19 06:14:49;;;;;;;1.73;1.70;;;;;;;-146.25;100.00;57403.91;5048396;28;20675;-90
2023/06/19 06:18:15;;;;;;;3.88;1.80;;;;;;;-146.25;100.00;57403.91;5049075;28;20308;-89
2023/06/19 06:21:41;;;;;;;2.00;1.90;;;;;;;-146.25;100.00;57403.91;5049128;28;20272;-88
2023/06/19 06:25:10;;;;;;;3.90;1.70;;;;;;;-146.25;100.00;57403.91;5047037;28;20191;-88
2023/06/19 06:28:36;;;;;;;1.80;1.75;;;;;;;-146.25;100.00;57403.91;5053195;28;20203;-88
2023/06/19 06:32:07;;;;;;;1.58;1.50;;;;;;;-146.25;100.00;57403.91;5052831;28;20637;-87
2023/06/19 06:35:32;;;;;;;1.88;1.77;;;;;;;-146.25;100.00;57403.91;5054019;28;20190;-88
2023/06/19 06:38:58;;;;;;;1.42;1.42;;;;;;;-146.25;100.00;57403.91;5055366;28;20203;-88
2023/06/19 06:42:28;;;;;;;1.80;1.70;;;;;;;-146.25;100.00;57403.91;5073597;28;20206;-88
2023/06/19 06:45:54;;;;;;;1.48;1.48;;;;;;;-146.25;100.00;57403.91;5049897;28;20643;-89
2023/06/19 06:49:22;;;;;;;1.70;1.70;;;;;;;-146.25;100.00;57403.91;5049050;28;20214;-88
2023/06/19 06:52:47;;;;;;;1.83;1.73;;;;;;;-146.25;100.00;57403.91;5050018;28;20278;-90
2023/06/19 06:56:13;;;;;;;1.77;1.67;;;;;;;-146.25;100.00;57403.91;5051913;28;20207;-89
2023/06/19 06:59:39;;;;;;;2.53;2.42;;;;;;;-146.25;100.00;57403.91;5052859;28;20195;-89
2023/06/19 07:03:05;;;;;;;1.85;1.75;;;;;;;-146.25;100.00;57403.91;5050697;28;20206;-89
2023/06/19 07:05:33;;;;;;;2.08;1.75;;;;;;;-146.25;100.00;57403.91;5059070;28;20626;-90
2023/06/19 07:08:02;;;;;;;1.60;1.50;;;;;;;-146.25;100.00;57403.91;5051334;28;20289;-89
2023/06/19 07:10:29;;;;;;;1.80;1.65;;;;;;;-146.25;100.00;57403.91;5051234;28;20571;-91
2023/06/19 07:12:57;;;;;;;1.48;1.48;;;;;;;-146.25;100.00;57403.91;5051888;28;20602;-90
2023/06/19 07:15:24;;;;;;;1.80;1.75;;;;;;;-146.25;100.00;57403.91;5051402;28;20656;-89
2023/06/19 07:17:52;;;;;;;1.35;1.35;;;;;;;-146.25;100.00;57403.91;5050584;28;20321;-90
2023/06/19 07:20:19;;;;;;;1.60;1.50;;;;;;;-146.25;100.00;57403.91;5051137;28;20207;-92
2023/06/19 07:22:48;;;;;;;1.60;1.60;;;;;;;-146.25;100.00;57403.91;5051909;28;20206;-90
2023/06/19 07:25:16;;;;;;;1.65;1.65;;;;;;;-146.25;100.00;57403.91;5050373;28;20199;-90
2023/06/19 07:27:44;;;;;;;1.88;1.77;;;;;;;-146.25;100.00;57403.91;5047366;28;20272;-90
2023/06/19 07:30:15;;;;;;;3.67;1.85;;;;;;;-146.25;100.00;57403.91;5031394;28;20225;-87
2023/06/19 07:32:42;;;;;;;1.30;1.30;;;;;;;-146.25;100.00;57403.91;5029959;28;20230;-90
2023/06/19 07:35:15;;;;;;;2.20;2.10;;;;;;;-146.25;100.00;57403.91;5030599;28;20286;-88
2023/06/19 07:37:42;;;;;;;1.48;1.48;;;;;;;-146.25;100.00;57403.91;5048226;28;20207;-88
2023/06/19 07:40:15;;;;;;;2.13;2.03;;;;;;;-146.25;100.00;57403.91;5062640;28;20206;-87
2023/06/19 07:42:42;;;;;;;1.75;1.65;;;;;;;-146.25;100.00;57403.91;5069675;28;20248;-89
2023/06/19 07:45:11;;;;;;;1.83;1.73;;;;;;;-146.25;100.00;57403.91;5069402;28;20685;-88
2023/06/19 07:47:38;;;;;;;1.63;1.63;;;;;;;-146.25;100.00;57403.91;5049954;28;20688;-88
2023/06/19 07:50:05;;;;;;;1.98;1.88;;;;;;;-146.25;100.00;57403.91;5049604;28;20318;-88
2023/06/19 07:52:33;;;;;;;1.80;1.70;;;;;;;-146.25;100.00;57403.91;5050280;28;20214;-89
2023/06/19 07:55:04;;;;;;;2.13;2.03;;;;;;;-146.25;100.00;57403.91;5049574;28;20671;-87
2023/06/19 07:57:34;;;;;;;1.73;1.73;;;;;;;-146.25;100.00;57403.91;5046666;28;20456;-87
2023/06/19 08:00:10;;;;;;;1.52;1.52;;;;;;;-146.25;100.00;57403.91;5046584;28;20664;-83
2023/06/19 08:02:46;;;;;;;1.88;1.77;;;;;;;-146.25;100.00;57403.91;5026255;28;20711;-84
2023/06/19 08:05:13;;;;;;;1.55;1.55;;;;;;;-146.25;100.00;57403.91;5026751;28;20224;-83
2023/06/19 08:07:41;;;;;;;1.88;1.83;;;;;;;-146.25;100.00;57403.91;5044275;28;20223;-83
2023/06/19 08:10:10;;;;;;;1.55;1.50;;;;;;;-146.25;100.00;57403.91;5046041;28;20230;-85
2023/06/19 08:12:38;;;;;;;1.95;1.85;;;;;;;-146.25;100.00;57403.91;5036534;28;20227;-83
2023/06/19 08:15:06;;;;;;;1.70;1.70;;;;;;;-146.25;100.00;57403.91;5042032;28;20330;-84
2023/06/19 08:17:33;;;;;;;1.80;1.80;;;;;;;-146.25;100.00;57403.91;5045562;28;20568;-85
2023/06/19 08:20:00;;;;;;;1.83;1.80;;;;;;;-146.25;100.00;57403.91;5025201;28;20243;-84
2023/06/19 08:22:27;;;;;;;1.55;1.55;;;;;;;-146.25;100.00;57403.91;5026536;28;20242;-85
2023/06/19 08:24:55;;;;;;;2.08;1.98;;;;;;;-146.25;100.00;57403.91;5025408;28;20606;-84
2023/06/19 08:27:22;;;;;;;1.88;1.88;;;;;;;-146.25;100.00;57403.91;5026270;28;20718;-84
2023/06/19 08:29:50;;;;;;;2.47;1.67;;;;;;;-146.25;100.00;57403.91;5025417;28;20223;-85
2023/06/19 08:32:17;;;;;;;1.58;1.48;;;;;;;-146.25;100.00;57403.91;5025390;28;20731;-85
2023/06/19 08:34:44;;;;;;;1.70;1.67;;;;;;;-146.25;100.00;57403.91;5024163;28;20239;-86
2023/06/19 08:37:11;;;;;;;1.40;1.40;;;;;;;-146.25;100.00;57403.91;5026154;28;20235;-83
2023/06/19 08:39:39;;;;;;;1.48;1.48;;;;;;;-146.25;100.00;57403.91;5025612;28;20304;-85
2023/06/19 08:42:07;;;;;;;1.63;1.52;;;;;;;-146.25;100.00;57403.91;5024643;28;20224;-85
2023/06/19 08:44:35;;;;;;;1.27;1.17;;;;;;;-146.25;100.00;57403.91;5025509;28;20223;-85
2023/06/19 08:47:05;;;;;;;1.65;1.65;;;;;;;-146.25;100.00;57403.91;5025371;28;20227;-86
2023/06/19 08:49:35;;;;;;;1.83;1.73;;;;;;;-146.25;100.00;57403.91;5044194;28;20326;-83
2023/06/19 08:52:02;;;;;;;1.50;1.50;;;;;;;-146.25;100.00;57403.91;5046494;28;20235;-85
2023/06/19 08:54:29;;;;;;;1.80;1.70;;;;;;;-146.25;100.00;57403.91;5045345;28;20227;-85
2023/06/19 08:56:57;;;;;;;1.92;1.85;;;;;;;-146.25;100.00;57403.91;5044737;28;20330;-86
2023/06/19 08:59:26;;;;;;;1.63;1.63;;;;;;;-146.25;100.00;57403.91;5045641;28;20279;-85
2023/06/19 09:01:54;;;;;;;1.60;1.60;;;;;;;-146.25;100.00;57403.91;5045083;28;20223;-84
2023/06/19 09:04:26;;;;;;;2.17;2.08;;;;;;;-146.25;100.00;57403.91;5044189;28;20354;-85
2023/06/19 09:06:55;;;;;;;1.88;1.88;;;;;;;-146.25;100.00;57403.91;5046739;28;20226;-85
2023/06/19 09:09:24;;;;;;;1.58;1.58;;;;;;;-146.25;100.00;57403.91;5043720;28;20215;-84
2023/06/19 09:12:01;;;;;;;1.45;1.45;;;;;;;-146.25;100.00;57403.91;5045422;28;20713;-84
2023/06/19 09:14:36;;;;;;;1.65;1.55;;;;;;;-146.25;100.00;57403.91;5044852;28;20727;-84
2023/06/19 09:17:04;;;;;;;1.75;1.65;;;;;;;-146.25;100.00;57403.91;5046171;28;20688;-84
2023/06/19 09:19:34;;;;;;;1.70;1.70;;;;;;;-146.25;100.00;57403.91;5044501;28;20307;-85
2023/06/19 09:22:03;;;;;;;2.03;1.98;;;;;;;-146.25;100.00;57403.91;5045735;28;20319;-84
2023/06/19 09:24:37;;;;;;;1.55;1.45;;;;;;;-146.25;100.00;57403.91;5045840;28;20299;-84
2023/06/19 09:27:13;;;;;;;2.05;1.95;;;;;;;-146.25;100.00;57403.91;5045359;28;20230;-85
2023/06/19 09:29:40;;;;;;;2.35;2.25;;;;;;;-146.25;100.00;57403.91;5045452;28;20227;-85
2023/06/19 09:32:18;;;;;;;1.75;1.65;;;;;;;-146.25;100.00;57403.91;5045841;28;20220;-84
2023/06/19 09:34:48;;;;;;;1.52;1.35;;;;;;;-146.25;100.00;57403.91;5044518;28;20253;-85
2023/06/19 09:37:15;;;;;;;1.50;1.50;;;;;;;-146.25;100.00;57403.91;5045378;28;20255;-84
2023/06/19 09:39:43;;;;;;;1.65;1.55;;;;;;;-146.25;100.00;57403.91;5044541;28;20226;-85
2023/06/19 09:42:11;;;;;;;2.15;2.05;;;;;;;-146.25;100.00;57403.91;5044761;28;20227;-85
2023/06/19 09:44:43;;;;;;;2.17;2.08;;;;;;;-146.25;100.00;57403.91;5044276;28;20246;-86
2023/06/19 09:47:18;;;;;;;1.70;1.60;;;;;;;-146.25;100.00;57403.91;5044900;28;20219;-85
2023/06/19 09:49:51;;;;;;;1.75;1.75;;;;;;;-146.25;100.00;57403.91;5044063;28;20238;-85
2023/06/19 09:52:22;;;;;;;1.67;1.58;;;;;;;-146.25;100.00;57403.91;5045063;28;20309;-86
2023/06/19 09:54:51;;;;;;;1.90;1.80;;;;;;;-146.25;100.00;57403.91;5045648;28;20234;-86
2023/06/19 09:57:18;;;;;;;1.90;1.77;;;;;;;-146.25;100.00;57403.91;5044654;28;20241;-87
2023/06/19 09:59:48;;;;;;;1.92;1.83;;;;;;;-146.25;100.00;57403.91;5046676;28;20255;-87
2023/06/19 10:02:16;;;;;;;2.95;2.10;;;;;;;-146.25;100.00;57403.91;5049204;28;20226;-86
2023/06/19 10:04:46;;;;;;;2.03;1.92;;;;;;;-146.25;100.00;57403.91;5047592;28;20710;-88
2023/06/19 10:07:19;;;;;;;2.08;1.98;;;;;;;-146.25;100.00;57403.91;5049959;28;20227;-86
2023/06/19 10:10:00;;;;;;;1.90;1.80;;;;;;;-146.25;100.00;57403.91;5048863;28;20324;-86
2023/06/19 10:12:42;;;;;;;1.85;1.75;;;;;;;-146.25;100.00;57403.91;5048653;28;20317;-87
2023/06/19 10:15:14;;;;;;;1.70;1.60;;;;;;;-146.25;100.00;57403.91;5048794;28;20534;-87
2023/06/19 10:17:47;;;;;;;1.75;1.65;;;;;;;-146.25;100.00;57403.91;5048870;28;20296;-88
2023/06/19 10:20:27;;;;;;;1.58;1.48;;;;;;;-146.25;100.00;57403.91;5048017;28;20227;-86
2023/06/19 10:23:03;;;;;;;1.80;1.70;;;;;;;-146.25;100.00;57403.91;5047512;28;20230;-85
2023/06/19 10:25:32;;;;;;;1.88;1.77;;;;;;;-146.25;100.00;57403.91;5048408;28;20714;-85
2023/06/19 10:28:00;;;;;;;1.92;1.83;;;;;;;-146.25;100.00;57403.91;5048609;28;20627;-85
2023/06/19 10:30:29;;;;;;;1.95;1.83;;;;;;;-146.25;100.00;57403.91;5047954;28;20306;-85
2023/06/19 10:32:57;;;;;;;1.65;1.63;;;;;;;-146.25;100.00;57403.91;5047183;28;20224;-86
2023/06/19 10:35:25;;;;;;;1.55;1.55;;;;;;;-146.25;100.00;57403.91;5048367;28;20226;-84
2023/06/19 10:37:52;;;;;;;2.38;2.28;;;;;;;-146.25;100.00;57403.91;5062483;28;20641;-86
2023/06/19 10:40:21;;;;;;;1.65;1.55;;;;;;;-146.25;100.00;57403.91;5068360;28;20306;-85
2023/06/19 10:42:48;;;;;;;1.88;1.77;;;;;;;-146.25;100.00;57403.91;5067752;28;20321;-85
2023/06/19 10:45:20;;;;;;;1.70;1.60;;;;;;;-146.25;100.00;57403.91;5067493;28;20734;-87
2023/06/19 10:47:54;;;;;;;2.00;1.90;;;;;;;-146.25;100.00;57403.91;5064964;28;20229;-87
2023/06/19 10:50:21;;;;;;;1.90;1.60;;;;;;;-146.25;100.00;57403.91;5048248;28;20246;-86
2023/06/19 10:52:54;;;;;;;2.00;1.90;;;;;;;-146.25;100.00;57403.91;5047818;28;20231;-86
2023/06/19 10:55:23;;;;;;;2.17;2.08;;;;;;;-146.25;100.00;57403.91;5048504;28;20253;-84
2023/06/19 10:57:51;;;;;;;2.08;1.98;;;;;;;-146.25;100.00;57403.91;5070928;28;20242;-87
2023/06/19 11:00:26;;;;;;;2.92;1.67;;;;;;;-146.25;100.00;57403.91;5070155;28;20234;-87
2023/06/19 11:02:55;;;;;;;2.42;2.33;;;;;;;-146.25;100.00;57403.91;5046879;28;20229;-87
2023/06/19 11:05:22;;;;;;;9.77;5.13;;;;;;;-146.25;100.00;57403.91;5048139;28;20281;-87
2023/06/19 11:07:54;;;;;;;2.58;2.38;;;;;;;-146.25;100.00;57403.91;5047801;28;20231;-87
2023/06/19 11:10:22;;;;;;;2.30;2.20;;;;;;;-146.25;100.00;57403.91;5046409;28;20231;-86
2023/06/19 11:12:54;;;;;;;2.78;2.60;;;;;;;-146.25;100.00;57403.91;5048215;28;20239;-86
2023/06/19 11:15:28;;;;;;;2.00;1.90;;;;;;;-146.25;100.00;57403.91;5048204;28;20235;-87
2023/06/19 11:17:55;;;;;;;4.10;3.75;;;;;;;-146.25;100.00;57403.91;5045178;28;20227;-88
2023/06/19 11:20:23;;;;;;;1.92;1.83;;;;;;;-146.25;100.00;57403.91;5048198;28;20224;-86
2023/06/19 11:22:56;;;;;;;2.03;1.92;;;;;;;-146.25;100.00;57403.91;5046891;28;20227;-86
2023/06/19 11:25:24;;;;;;;2.35;2.22;;;;;;;-146.25;100.00;57403.91;5047061;28;20611;-86
2023/06/19 11:27:54;;;;;;;2.10;2.00;;;;;;;-146.25;100.00;57403.91;5046895;28;20241;-87
2023/06/19 11:30:34;;;;;;;2.85;2.40;;;;;;;-146.25;100.00;57403.91;5047236;28;20302;-87
2023/06/19 11:33:02;;;;;;;1.98;1.88;;;;;;;-146.25;100.00;57403.91;5045359;28;20247;-87
2023/06/19 11:35:36;;;;;;;2.00;1.85;;;;;;;-146.25;100.00;57403.91;5047435;28;20223;-87
2023/06/19 11:38:03;;;;;;;5.28;3.95;;;;;;;-146.25;100.00;57403.91;5047521;28;20235;-87
2023/06/19 11:40:40;;;;;;;2.08;2.00;;;;;;;-146.25;100.00;57403.91;5046824;28;20238;-87
2023/06/19 11:43:09;;;;;;;2.40;2.30;;;;;;;-146.25;100.00;57403.91;5047138;28;20227;-88
2023/06/19 11:45:47;;;;;;;1.92;1.90;;;;;;;-146.25;100.00;57403.91;5046599;28;20220;-86
2023/06/19 11:48:14;;;;;;;3.17;2.97;;;;;;;-146.25;100.00;57403.91;5046739;28;20274;-84
2023/06/19 11:50:41;;;;;;;2.22;2.13;;;;;;;-146.25;100.00;57403.91;5046393;28;20239;-86
2023/06/19 11:53:09;;;;;;;2.17;2.08;;;;;;;-146.25;100.00;57403.91;5046472;28;20227;-86
2023/06/19 11:55:36;;;;;;;2.15;2.05;;;;;;;-146.25;100.00;57403.91;5046152;28;20715;-85
2023/06/19 11:58:03;;;;;;;2.05;1.95;;;;;;;-146.25;100.00;57403.91;5046734;28;20712;-85
2023/06/19 12:00:32;;;;;;;2.13;2.00;;;;;;;-146.25;100.00;57403.91;5046412;28;20672;-87
2023/06/19 12:02:59;;;;;;;2.13;2.03;;;;;;;-146.25;100.00;57403.91;5046240;28;20253;-85
2023/06/19 12:05:26;;;;;;;2.03;1.92;;;;;;;-146.25;100.00;57403.91;5046206;28;20639;-87
2023/06/19 12:07:54;;;;;;;2.28;2.17;;;;;;;-146.25;100.00;57403.91;5045736;28;20234;-87
2023/06/19 12:10:21;;;;;;;2.20;2.10;;;;;;;-146.25;100.00;57403.91;5045696;28;20222;-86
2023/06/19 12:12:49;;;;;;;2.10;2.00;;;;;;;-146.25;100.00;57403.91;5045921;28;20231;-87
2023/06/19 12:15:16;;;;;;;2.20;2.10;;;;;;;-146.25;100.00;57403.91;5046581;28;20529;-85
2023/06/19 12:17:47;;;;;;;1.70;1.70;;;;;;;-146.25;100.00;57403.91;5045036;28;20317;-84
2023/06/19 12:20:14;;;;;;;2.05;1.95;;;;;;;-146.25;100.00;57403.91;5044880;28;20245;-87
2023/06/19 12:22:43;;;;;;;2.30;2.20;;;;;;;-146.25;100.00;57403.91;5044375;28;20233;-85
2023/06/19 12:25:10;;;;;;;1.98;1.88;;;;;;;-146.25;100.00;57403.91;5045271;28;20223;-84
2023/06/19 12:27:39;;;;;;;4.55;1.98;;;;;;;-146.25;100.00;57403.91;5024887;28;20226;-83
2023/06/19 12:30:10;;;;;;;2.05;1.90;;;;;;;-146.25;100.00;57403.91;5043230;28;20258;-85
2023/06/19 12:32:37;;;;;;;2.03;1.92;;;;;;;-146.25;100.00;57403.91;5042488;28;20708;-85
2023/06/19 12:35:07;;;;;;;2.42;2.33;;;;;;;-146.25;100.00;57403.91;5044256;28;20243;-84
2023/06/19 12:37:34;;;;;;;2.03;1.83;;;;;;;-146.25;100.00;57403.91;5032839;28;20235;-84
2023/06/19 12:40:07;;;;;;;2.10;2.00;;;;;;;-146.25;100.00;57403.91;5034643;28;20227;-84
2023/06/19 12:42:35;;;;;;;1.90;1.80;;;;;;;-146.25;100.00;57403.91;5025060;28;20655;-85
2023/06/19 12:45:02;;;;;;;2.30;2.20;;;;;;;-146.25;100.00;57403.91;5025688;28;20259;-85
2023/06/19 12:47:33;;;;;;;2.25;2.15;;;;;;;-146.25;100.00;57403.91;5025299;28;20716;-85
2023/06/19 12:50:00;;;;;;;2.67;1.77;;;;;;;-146.25;100.00;57403.91;5025694;28;20293;-85
2023/06/19 12:52:28;;;;;;;2.17;2.08;;;;;;;-146.25;100.00;57403.91;5025764;28;20803;-85
2023/06/19 12:54:55;;;;;;;1.92;1.83;;;;;;;-146.25;100.00;57403.91;5025897;28;20290;-84
2023/06/19 12:57:23;;;;;;;2.33;2.13;;;;;;;-146.25;100.00;57403.91;5024032;28;20231;-86
2023/06/19 12:59:52;;;;;;;2.10;2.00;;;;;;;-146.25;100.00;57403.91;5025689;28;20262;-86
2023/06/19 13:02:19;;;;;;;2.10;2.00;;;;;;;-146.25;100.00;57403.91;5024642;28;20216;-86
2023/06/19 13:04:46;;;;;;;2.53;2.33;;;;;;;-146.25;100.00;57403.91;5033749;28;20230;-87
2023/06/19 13:07:13;;;;;;;2.20;1.88;;;;;;;-146.25;100.00;57403.91;5068396;28;20770;-86
2023/06/19 13:09:45;;;;;;;1.80;1.70;;;;;;;-146.25;100.00;57403.91;5065667;28;20218;-87
2023/06/19 13:12:12;;;;;;;2.28;2.08;;;;;;;-146.25;100.00;57403.91;5048066;28;20227;-87
2023/06/19 13:14:40;;;;;;;2.40;2.20;;;;;;;-146.25;100.00;57403.91;5045314;28;20273;-87
2023/06/19 13:17:08;;;;;;;1.52;1.52;;;;;;;-146.25;100.00;57403.91;5044146;28;20305;-87